Terminal Aerodrome Forecast
Issued by NWS

Home | Current Version | Previous Version | Text Only | Print | Product List | Glossary On
Versions: 1 2 3 4 5 6 7 8 9 10 11 12
991
FTUS45 KRIW 291720
TAFLND
TAF
KLND 291720Z 2918/3018 21010KT P6SM SCT100
     FM292000 20012G20KT P6SM VCTS SCT080CB BKN200
     FM300300 23008KT P6SM SCT090
     FM301200 VRB05KT P6SM SCT120=

USA.gov is the U.S. government's official web portal to all federal, state and local government web resources and services.